Benton Ridge, Ohio
Current Conditions -  °F | °C
As of 5:24 PM on Sunday 25 Jan 2015 (Local Time) from KFDY Reporting Station
Moderate Snow Moderate Snow  
Wind Chill: -14°   Ceiling: 1300
Heat Index: -6°   Visibility: 0.5mi
Dew Point: -8°   Wind: 20mph
Humidity: 85%   Direction: 50°NE
Pressure: 29.81"   Gusts: 29mph
Location:  41°N, 83.79°W
Report Text: KFDY 252224Z AUTO 05017G25KT 1/2SM SN FZFG VV013 M06/M08 A2981 RMK AO2 P0000 T10561078
Loading
Personal Weather Stations






























Interactive Weather Map New forecast layout! Learn more

10-Day Weather Forecast

Advertisements
Track Severe Weather on mobile